sensor_id;sensor_type;location;lat;lon;timestamp;P1;durP1;ratioP1;P2;durP2;ratioP2
1454;SDS011;721;48.168;12.818;2022-07-04T00:01:43;3.17;;;2.90;;
1454;SDS011;721;48.168;12.818;2022-07-04T00:04:10;4.10;;;3.00;;
1454;SDS011;721;48.168;12.818;2022-07-04T00:06:37;2.50;;;2.40;;
1454;SDS011;721;48.168;12.818;2022-07-04T00:09:05;2.63;;;2.53;;
1454;SDS011;721;48.168;12.818;2022-07-04T00:11:31;2.80;;;2.60;;
1454;SDS011;721;48.168;12.818;2022-07-04T00:13:58;2.33;;;2.13;;
1454;SDS011;721;48.168;12.818;2022-07-04T00:16:25;3.50;;;2.80;;
1454;SDS011;721;48.168;12.818;2022-07-04T00:18:52;3.13;;;2.83;;
1454;SDS011;721;48.168;12.818;2022-07-04T00:21:19;3.00;;;2.47;;
1454;SDS011;721;48.168;12.818;2022-07-04T00:23:46;2.60;;;2.40;;
1454;SDS011;721;48.168;12.818;2022-07-04T00:26:15;2.70;;;2.60;;
1454;SDS011;721;48.168;12.818;2022-07-04T00:28:41;2.97;;;2.87;;
1454;SDS011;721;48.168;12.818;2022-07-04T00:31:08;3.50;;;2.73;;
1454;SDS011;721;48.168;12.818;2022-07-04T00:33:35;3.23;;;3.00;;
1454;SDS011;721;48.168;12.818;2022-07-04T00:36:02;3.00;;;2.80;;
1454;SDS011;721;48.168;12.818;2022-07-04T00:38:29;3.00;;;2.70;;
1454;SDS011;721;48.168;12.818;2022-07-04T00:40:56;3.43;;;3.23;;
1454;SDS011;721;48.168;12.818;2022-07-04T00:43:25;4.93;;;2.87;;
1454;SDS011;721;48.168;12.818;2022-07-04T00:45:53;3.43;;;3.23;;
1454;SDS011;721;48.168;12.818;2022-07-04T00:48:20;4.23;;;2.97;;
1454;SDS011;721;48.168;12.818;2022-07-04T00:50:47;4.53;;;2.90;;
1454;SDS011;721;48.168;12.818;2022-07-04T00:53:25;3.33;;;3.03;;
1454;SDS011;721;48.168;12.818;2022-07-04T00:55:52;3.20;;;3.00;;
1454;SDS011;721;48.168;12.818;2022-07-04T00:58:20;3.53;;;3.23;;
1454;SDS011;721;48.168;12.818;2022-07-04T01:00:49;4.33;;;3.17;;
1454;SDS011;721;48.168;12.818;2022-07-04T01:03:16;3.90;;;3.60;;
1454;SDS011;721;48.168;12.818;2022-07-04T01:05:43;3.40;;;3.10;;
1454;SDS011;721;48.168;12.818;2022-07-04T01:08:11;4.43;;;3.77;;
1454;SDS011;721;48.168;12.818;2022-07-04T01:10:39;3.40;;;3.07;;
1454;SDS011;721;48.168;12.818;2022-07-04T01:13:06;3.73;;;3.43;;
1454;SDS011;721;48.168;12.818;2022-07-04T01:15:32;3.60;;;3.40;;
1454;SDS011;721;48.168;12.818;2022-07-04T01:18:01;4.20;;;3.83;;
1454;SDS011;721;48.168;12.818;2022-07-04T01:20:34;3.47;;;3.27;;
1454;SDS011;721;48.168;12.818;2022-07-04T01:23:02;4.17;;;3.77;;
1454;SDS011;721;48.168;12.818;2022-07-04T01:25:29;4.30;;;3.90;;
1454;SDS011;721;48.168;12.818;2022-07-04T01:28:00;3.77;;;3.47;;
1454;SDS011;721;48.168;12.818;2022-07-04T01:30:27;5.73;;;3.63;;
1454;SDS011;721;48.168;12.818;2022-07-04T01:32:55;3.50;;;3.20;;
1454;SDS011;721;48.168;12.818;2022-07-04T01:35:22;5.27;;;3.27;;
1454;SDS011;721;48.168;12.818;2022-07-04T01:37:51;3.57;;;3.27;;
1454;SDS011;721;48.168;12.818;2022-07-04T01:40:18;3.83;;;3.53;;
1454;SDS011;721;48.168;12.818;2022-07-04T01:42:45;3.93;;;3.40;;
1454;SDS011;721;48.168;12.818;2022-07-04T01:45:11;3.80;;;3.60;;
1454;SDS011;721;48.168;12.818;2022-07-04T01:47:39;4.13;;;3.30;;
1454;SDS011;721;48.168;12.818;2022-07-04T01:50:07;3.93;;;3.73;;
1454;SDS011;721;48.168;12.818;2022-07-04T01:52:37;4.20;;;3.67;;
1454;SDS011;721;48.168;12.818;2022-07-04T01:55:08;4.17;;;3.80;;
1454;SDS011;721;48.168;12.818;2022-07-04T01:57:38;4.10;;;3.70;;
1454;SDS011;721;48.168;12.818;2022-07-04T02:00:05;3.90;;;3.50;;
1454;SDS011;721;48.168;12.818;2022-07-04T02:02:52;3.90;;;3.47;;
1454;SDS011;721;48.168;12.818;2022-07-04T02:05:18;4.03;;;3.30;;
1454;SDS011;721;48.168;12.818;2022-07-04T02:07:47;5.13;;;3.40;;
1454;SDS011;721;48.168;12.818;2022-07-04T02:10:17;4.37;;;3.53;;
1454;SDS011;721;48.168;12.818;2022-07-04T02:12:44;4.00;;;3.60;;
1454;SDS011;721;48.168;12.818;2022-07-04T02:15:35;4.13;;;3.60;;
1454;SDS011;721;48.168;12.818;2022-07-04T02:18:03;7.43;;;4.77;;
1454;SDS011;721;48.168;12.818;2022-07-04T02:20:31;6.90;;;3.80;;
1454;SDS011;721;48.168;12.818;2022-07-04T02:23:01;4.30;;;3.80;;
1454;SDS011;721;48.168;12.818;2022-07-04T02:25:30;3.67;;;3.43;;
1454;SDS011;721;48.168;12.818;2022-07-04T02:27:57;3.77;;;3.47;;
1454;SDS011;721;48.168;12.818;2022-07-04T02:30:24;4.97;;;3.70;;
1454;SDS011;721;48.168;12.818;2022-07-04T02:32:51;3.97;;;3.77;;
1454;SDS011;721;48.168;12.818;2022-07-04T02:35:18;3.57;;;3.30;;
1454;SDS011;721;48.168;12.818;2022-07-04T02:37:48;4.30;;;3.90;;
1454;SDS011;721;48.168;12.818;2022-07-04T02:40:15;3.63;;;3.33;;
1454;SDS011;721;48.168;12.818;2022-07-04T02:42:43;3.67;;;3.37;;
1454;SDS011;721;48.168;12.818;2022-07-04T02:45:14;3.60;;;3.30;;
1454;SDS011;721;48.168;12.818;2022-07-04T02:47:40;4.83;;;3.03;;
1454;SDS011;721;48.168;12.818;2022-07-04T02:50:10;2.47;;;2.37;;
1454;SDS011;721;48.168;12.818;2022-07-04T02:52:37;3.77;;;3.03;;
1454;SDS011;721;48.168;12.818;2022-07-04T02:55:04;3.53;;;3.23;;
1454;SDS011;721;48.168;12.818;2022-07-04T02:57:32;3.37;;;3.03;;
1454;SDS011;721;48.168;12.818;2022-07-04T03:00:04;3.33;;;3.13;;
1454;SDS011;721;48.168;12.818;2022-07-04T03:02:32;3.03;;;2.83;;
1454;SDS011;721;48.168;12.818;2022-07-04T03:04:58;3.87;;;3.10;;
1454;SDS011;721;48.168;12.818;2022-07-04T03:07:28;2.77;;;2.57;;
1454;SDS011;721;48.168;12.818;2022-07-04T03:09:55;3.33;;;3.03;;
1454;SDS011;721;48.168;12.818;2022-07-04T03:12:22;3.70;;;3.50;;
1454;SDS011;721;48.168;12.818;2022-07-04T03:14:51;4.20;;;3.90;;
1454;SDS011;721;48.168;12.818;2022-07-04T03:17:20;3.20;;;3.00;;
1454;SDS011;721;48.168;12.818;2022-07-04T03:19:47;3.90;;;3.63;;
1454;SDS011;721;48.168;12.818;2022-07-04T03:22:14;4.17;;;3.77;;
1454;SDS011;721;48.168;12.818;2022-07-04T03:24:40;5.43;;;3.27;;
1454;SDS011;721;48.168;12.818;2022-07-04T03:27:07;4.80;;;3.90;;
1454;SDS011;721;48.168;12.818;2022-07-04T03:29:34;3.40;;;3.20;;
1454;SDS011;721;48.168;12.818;2022-07-04T03:32:04;4.07;;;3.77;;
1454;SDS011;721;48.168;12.818;2022-07-04T03:34:33;6.77;;;3.70;;
1454;SDS011;721;48.168;12.818;2022-07-04T03:37:00;4.20;;;3.10;;
1454;SDS011;721;48.168;12.818;2022-07-04T03:39:27;3.60;;;3.30;;
1454;SDS011;721;48.168;12.818;2022-07-04T03:41:54;3.60;;;3.30;;
1454;SDS011;721;48.168;12.818;2022-07-04T03:44:20;3.87;;;3.60;;
1454;SDS011;721;48.168;12.818;2022-07-04T03:46:47;3.33;;;2.97;;
1454;SDS011;721;48.168;12.818;2022-07-04T03:49:14;3.90;;;3.17;;
1454;SDS011;721;48.168;12.818;2022-07-04T03:51:42;3.17;;;2.97;;
1454;SDS011;721;48.168;12.818;2022-07-04T03:54:11;3.27;;;3.07;;
1454;SDS011;721;48.168;12.818;2022-07-04T03:56:38;2.67;;;2.47;;
1454;SDS011;721;48.168;12.818;2022-07-04T03:59:05;5.70;;;3.47;;
1454;SDS011;721;48.168;12.818;2022-07-04T04:01:32;3.33;;;3.00;;
1454;SDS011;721;48.168;12.818;2022-07-04T04:03:58;3.33;;;2.73;;
1454;SDS011;721;48.168;12.818;2022-07-04T04:06:44;4.23;;;3.10;;
1454;SDS011;721;48.168;12.818;2022-07-04T04:09:11;3.40;;;2.63;;
1454;SDS011;721;48.168;12.818;2022-07-04T04:11:41;2.60;;;2.40;;
1454;SDS011;721;48.168;12.818;2022-07-04T04:14:08;2.77;;;2.57;;
1454;SDS011;721;48.168;12.818;2022-07-04T04:16:35;2.63;;;2.53;;
1454;SDS011;721;48.168;12.818;2022-07-04T04:19:01;4.03;;;3.43;;
1454;SDS011;721;48.168;12.818;2022-07-04T04:21:28;3.40;;;3.10;;
1454;SDS011;721;48.168;12.818;2022-07-04T04:23:59;3.00;;;2.80;;
1454;SDS011;721;48.168;12.818;2022-07-04T04:26:26;3.13;;;2.40;;
1454;SDS011;721;48.168;12.818;2022-07-04T04:28:53;2.90;;;2.50;;
1454;SDS011;721;48.168;12.818;2022-07-04T04:31:20;2.23;;;2.13;;
1454;SDS011;721;48.168;12.818;2022-07-04T04:33:47;2.40;;;2.20;;
1454;SDS011;721;48.168;12.818;2022-07-04T04:36:14;3.57;;;2.90;;
1454;SDS011;721;48.168;12.818;2022-07-04T04:38:41;2.77;;;2.57;;
1454;SDS011;721;48.168;12.818;2022-07-04T04:41:09;3.00;;;2.80;;
1454;SDS011;721;48.168;12.818;2022-07-04T04:43:36;2.47;;;2.30;;
1454;SDS011;721;48.168;12.818;2022-07-04T04:46:03;2.87;;;2.67;;
1454;SDS011;721;48.168;12.818;2022-07-04T04:48:31;2.87;;;2.67;;
1454;SDS011;721;48.168;12.818;2022-07-04T04:50:58;3.03;;;2.73;;
1454;SDS011;721;48.168;12.818;2022-07-04T04:53:28;3.40;;;2.67;;
1454;SDS011;721;48.168;12.818;2022-07-04T04:55:56;2.87;;;2.70;;
1454;SDS011;721;48.168;12.818;2022-07-04T04:58:24;2.70;;;2.47;;
1454;SDS011;721;48.168;12.818;2022-07-04T05:00:51;2.70;;;2.30;;
1454;SDS011;721;48.168;12.818;2022-07-04T05:03:18;2.07;;;1.97;;
1454;SDS011;721;48.168;12.818;2022-07-04T05:05:47;3.23;;;2.73;;
1454;SDS011;721;48.168;12.818;2022-07-04T05:08:14;3.77;;;2.37;;
1454;SDS011;721;48.168;12.818;2022-07-04T05:10:41;3.30;;;3.00;;
1454;SDS011;721;48.168;12.818;2022-07-04T05:13:08;2.47;;;2.27;;
1454;SDS011;721;48.168;12.818;2022-07-04T05:15:36;3.40;;;2.87;;
1454;SDS011;721;48.168;12.818;2022-07-04T05:18:03;3.20;;;2.90;;
1454;SDS011;721;48.168;12.818;2022-07-04T05:20:31;2.70;;;2.47;;
1454;SDS011;721;48.168;12.818;2022-07-04T05:22:58;2.90;;;2.40;;
1454;SDS011;721;48.168;12.818;2022-07-04T05:25:25;2.77;;;2.63;;
1454;SDS011;721;48.168;12.818;2022-07-04T05:27:52;2.93;;;2.73;;
1454;SDS011;721;48.168;12.818;2022-07-04T05:30:21;3.03;;;2.83;;
1454;SDS011;721;48.168;12.818;2022-07-04T05:32:49;2.87;;;2.60;;
1454;SDS011;721;48.168;12.818;2022-07-04T05:35:16;2.90;;;2.70;;
1454;SDS011;721;48.168;12.818;2022-07-04T05:37:43;2.80;;;2.60;;
1454;SDS011;721;48.168;12.818;2022-07-04T05:40:10;2.80;;;2.60;;
1454;SDS011;721;48.168;12.818;2022-07-04T05:42:38;2.67;;;2.47;;
1454;SDS011;721;48.168;12.818;2022-07-04T05:45:05;2.80;;;2.60;;
1454;SDS011;721;48.168;12.818;2022-07-04T05:47:32;2.87;;;2.43;;
1454;SDS011;721;48.168;12.818;2022-07-04T05:50:00;2.70;;;2.50;;
1454;SDS011;721;48.168;12.818;2022-07-04T05:52:27;3.37;;;2.87;;
1454;SDS011;721;48.168;12.818;2022-07-04T05:54:54;3.00;;;2.80;;
1454;SDS011;721;48.168;12.818;2022-07-04T05:57:21;3.00;;;2.80;;
1454;SDS011;721;48.168;12.818;2022-07-04T05:59:48;2.77;;;2.57;;
1454;SDS011;721;48.168;12.818;2022-07-04T06:02:15;2.57;;;2.37;;
1454;SDS011;721;48.168;12.818;2022-07-04T06:04:42;3.20;;;3.00;;
1454;SDS011;721;48.168;12.818;2022-07-04T06:07:13;2.60;;;2.50;;
1454;SDS011;721;48.168;12.818;2022-07-04T06:09:42;3.00;;;2.80;;
1454;SDS011;721;48.168;12.818;2022-07-04T06:12:10;3.27;;;3.07;;
1454;SDS011;721;48.168;12.818;2022-07-04T06:14:37;2.77;;;2.57;;
1454;SDS011;721;48.168;12.818;2022-07-04T06:17:03;5.40;;;3.40;;
1454;SDS011;721;48.168;12.818;2022-07-04T06:19:30;2.50;;;2.30;;
1454;SDS011;721;48.168;12.818;2022-07-04T06:21:57;2.37;;;2.27;;
1454;SDS011;721;48.168;12.818;2022-07-04T06:24:25;2.83;;;2.60;;
1454;SDS011;721;48.168;12.818;2022-07-04T06:26:52;2.30;;;2.10;;
1454;SDS011;721;48.168;12.818;2022-07-04T06:29:19;2.60;;;2.50;;
1454;SDS011;721;48.168;12.818;2022-07-04T06:31:46;3.17;;;2.97;;
1454;SDS011;721;48.168;12.818;2022-07-04T06:34:13;3.00;;;2.77;;
1454;SDS011;721;48.168;12.818;2022-07-04T06:36:57;2.80;;;2.60;;
1454;SDS011;721;48.168;12.818;2022-07-04T06:39:26;2.93;;;2.73;;
1454;SDS011;721;48.168;12.818;2022-07-04T06:41:52;2.73;;;2.50;;
1454;SDS011;721;48.168;12.818;2022-07-04T06:44:19;2.23;;;1.93;;
1454;SDS011;721;48.168;12.818;2022-07-04T06:46:46;2.70;;;2.60;;
1454;SDS011;721;48.168;12.818;2022-07-04T06:49:13;2.50;;;2.40;;
1454;SDS011;721;48.168;12.818;2022-07-04T06:51:39;2.43;;;2.33;;
1454;SDS011;721;48.168;12.818;2022-07-04T06:54:06;2.83;;;2.63;;
1454;SDS011;721;48.168;12.818;2022-07-04T06:56:34;4.43;;;3.20;;
1454;SDS011;721;48.168;12.818;2022-07-04T06:59:01;2.50;;;2.17;;
1454;SDS011;721;48.168;12.818;2022-07-04T07:01:29;2.50;;;2.30;;
1454;SDS011;721;48.168;12.818;2022-07-04T07:03:56;2.20;;;2.00;;
1454;SDS011;721;48.168;12.818;2022-07-04T07:06:26;2.80;;;2.60;;
1454;SDS011;721;48.168;12.818;2022-07-04T07:08:53;4.80;;;2.90;;
1454;SDS011;721;48.168;12.818;2022-07-04T07:11:20;3.03;;;2.73;;
1454;SDS011;721;48.168;12.818;2022-07-04T07:13:49;2.40;;;2.30;;
1454;SDS011;721;48.168;12.818;2022-07-04T07:16:17;2.90;;;2.47;;
1454;SDS011;721;48.168;12.818;2022-07-04T07:18:44;2.77;;;2.57;;
1454;SDS011;721;48.168;12.818;2022-07-04T07:21:11;2.97;;;2.70;;
1454;SDS011;721;48.168;12.818;2022-07-04T07:23:38;6.23;;;3.17;;
1454;SDS011;721;48.168;12.818;2022-07-04T07:26:05;2.40;;;2.30;;
1454;SDS011;721;48.168;12.818;2022-07-04T07:28:33;4.10;;;2.70;;
1454;SDS011;721;48.168;12.818;2022-07-04T07:31:01;5.23;;;2.77;;
1454;SDS011;721;48.168;12.818;2022-07-04T07:33:28;3.80;;;3.53;;
1454;SDS011;721;48.168;12.818;2022-07-04T07:35:55;2.97;;;2.77;;
1454;SDS011;721;48.168;12.818;2022-07-04T07:38:22;2.63;;;2.47;;
1454;SDS011;721;48.168;12.818;2022-07-04T07:40:49;3.23;;;2.07;;
1454;SDS011;721;48.168;12.818;2022-07-04T07:43:16;2.27;;;2.17;;
1454;SDS011;721;48.168;12.818;2022-07-04T07:45:46;2.77;;;2.60;;
1454;SDS011;721;48.168;12.818;2022-07-04T07:48:17;3.17;;;2.97;;
1454;SDS011;721;48.168;12.818;2022-07-04T07:50:44;3.07;;;2.50;;
1454;SDS011;721;48.168;12.818;2022-07-04T07:53:11;2.33;;;2.23;;
1454;SDS011;721;48.168;12.818;2022-07-04T07:55:37;3.03;;;2.83;;
1454;SDS011;721;48.168;12.818;2022-07-04T07:58:04;2.27;;;2.07;;
1454;SDS011;721;48.168;12.818;2022-07-04T08:00:31;2.20;;;2.10;;
1454;SDS011;721;48.168;12.818;2022-07-04T08:02:59;2.30;;;2.20;;
1454;SDS011;721;48.168;12.818;2022-07-04T08:05:44;2.60;;;2.50;;
1454;SDS011;721;48.168;12.818;2022-07-04T08:08:11;3.10;;;2.90;;
1454;SDS011;721;48.168;12.818;2022-07-04T08:10:38;2.10;;;2.00;;
1454;SDS011;721;48.168;12.818;2022-07-04T08:13:05;3.57;;;2.80;;
1454;SDS011;721;48.168;12.818;2022-07-04T08:15:32;2.20;;;2.00;;
1454;SDS011;721;48.168;12.818;2022-07-04T08:17:59;3.33;;;2.40;;
1454;SDS011;721;48.168;12.818;2022-07-04T08:20:26;3.10;;;2.67;;
1454;SDS011;721;48.168;12.818;2022-07-04T08:22:54;2.20;;;2.10;;
1454;SDS011;721;48.168;12.818;2022-07-04T08:25:21;2.27;;;2.13;;
1454;SDS011;721;48.168;12.818;2022-07-04T08:27:48;2.37;;;2.00;;
1454;SDS011;721;48.168;12.818;2022-07-04T08:30:15;3.13;;;2.40;;
1454;SDS011;721;48.168;12.818;2022-07-04T08:32:42;2.23;;;2.10;;
1454;SDS011;721;48.168;12.818;2022-07-04T08:35:08;2.33;;;2.23;;
1454;SDS011;721;48.168;12.818;2022-07-04T08:37:35;2.37;;;2.03;;
1454;SDS011;721;48.168;12.818;2022-07-04T08:40:04;2.50;;;2.30;;
1454;SDS011;721;48.168;12.818;2022-07-04T08:42:35;2.57;;;2.40;;
1454;SDS011;721;48.168;12.818;2022-07-04T08:45:03;2.27;;;2.07;;
1454;SDS011;721;48.168;12.818;2022-07-04T08:47:34;2.23;;;2.10;;
1454;SDS011;721;48.168;12.818;2022-07-04T08:50:06;3.13;;;1.97;;
1454;SDS011;721;48.168;12.818;2022-07-04T09:53:49;2.47;;;2.27;;
1454;SDS011;721;48.168;12.818;2022-07-04T09:57:20;2.73;;;2.53;;
1454;SDS011;721;48.168;12.818;2022-07-04T12:40:09;3.20;;;1.53;;
1454;SDS011;721;48.168;12.818;2022-07-04T15:16:16;1.80;;;1.43;;
1454;SDS011;721;48.168;12.818;2022-07-04T17:07:20;1.87;;;1.77;;
1454;SDS011;721;48.168;12.818;2022-07-04T17:27:15;2.53;;;2.13;;
1454;SDS011;721;48.168;12.818;2022-07-04T17:29:52;2.17;;;1.97;;
1454;SDS011;721;48.168;12.818;2022-07-04T18:16:40;1.93;;;1.83;;
1454;SDS011;721;48.168;12.818;2022-07-04T18:19:10;2.20;;;2.10;;
1454;SDS011;721;48.168;12.818;2022-07-04T18:21:38;2.77;;;2.57;;
1454;SDS011;721;48.168;12.818;2022-07-04T18:24:05;2.53;;;2.03;;
1454;SDS011;721;48.168;12.818;2022-07-04T18:26:32;2.33;;;1.90;;
1454;SDS011;721;48.168;12.818;2022-07-04T18:28:59;3.30;;;2.90;;
1454;SDS011;721;48.168;12.818;2022-07-04T18:31:27;2.77;;;2.57;;
1454;SDS011;721;48.168;12.818;2022-07-04T18:33:54;2.90;;;2.33;;
1454;SDS011;721;48.168;12.818;2022-07-04T18:36:21;2.67;;;2.57;;
1454;SDS011;721;48.168;12.818;2022-07-04T18:38:48;2.40;;;2.20;;
1454;SDS011;721;48.168;12.818;2022-07-04T18:41:15;2.77;;;2.33;;
1454;SDS011;721;48.168;12.818;2022-07-04T18:44:14;3.47;;;2.63;;
1454;SDS011;721;48.168;12.818;2022-07-04T18:46:42;7.33;;;2.57;;
1454;SDS011;721;48.168;12.818;2022-07-04T18:49:11;2.87;;;2.67;;
1454;SDS011;721;48.168;12.818;2022-07-04T18:51:38;2.97;;;2.37;;
1454;SDS011;721;48.168;12.818;2022-07-04T18:54:05;2.40;;;2.20;;
1454;SDS011;721;48.168;12.818;2022-07-04T18:56:32;1.80;;;1.70;;
1454;SDS011;721;48.168;12.818;2022-07-04T18:58:59;2.20;;;2.10;;
1454;SDS011;721;48.168;12.818;2022-07-04T19:01:27;2.10;;;2.00;;
1454;SDS011;721;48.168;12.818;2022-07-04T19:03:55;2.30;;;2.07;;
1454;SDS011;721;48.168;12.818;2022-07-04T19:06:21;2.30;;;2.10;;
1454;SDS011;721;48.168;12.818;2022-07-04T19:08:48;2.67;;;2.47;;
1454;SDS011;721;48.168;12.818;2022-07-04T19:11:15;2.30;;;2.17;;
1454;SDS011;721;48.168;12.818;2022-07-04T19:13:43;2.90;;;2.20;;
1454;SDS011;721;48.168;12.818;2022-07-04T19:16:10;2.67;;;2.37;;
1454;SDS011;721;48.168;12.818;2022-07-04T19:18:36;2.70;;;2.30;;
1454;SDS011;721;48.168;12.818;2022-07-04T19:21:06;3.60;;;2.50;;
1454;SDS011;721;48.168;12.818;2022-07-04T19:23:32;2.60;;;2.50;;
1454;SDS011;721;48.168;12.818;2022-07-04T19:25:59;2.30;;;2.20;;
1454;SDS011;721;48.168;12.818;2022-07-04T19:28:26;2.57;;;2.30;;
1454;SDS011;721;48.168;12.818;2022-07-04T19:30:53;2.90;;;2.70;;
1454;SDS011;721;48.168;12.818;2022-07-04T19:33:20;2.23;;;2.00;;
1454;SDS011;721;48.168;12.818;2022-07-04T19:35:47;2.30;;;2.10;;
1454;SDS011;721;48.168;12.818;2022-07-04T19:38:16;2.77;;;2.37;;
1454;SDS011;721;48.168;12.818;2022-07-04T19:40:42;3.70;;;2.50;;
1454;SDS011;721;48.168;12.818;2022-07-04T19:43:12;3.13;;;2.90;;
1454;SDS011;721;48.168;12.818;2022-07-04T19:45:39;3.30;;;2.60;;
1454;SDS011;721;48.168;12.818;2022-07-04T19:48:06;3.90;;;3.17;;
1454;SDS011;721;48.168;12.818;2022-07-04T19:50:33;2.93;;;2.67;;
1454;SDS011;721;48.168;12.818;2022-07-04T19:53:00;2.80;;;2.70;;
1454;SDS011;721;48.168;12.818;2022-07-04T19:55:31;2.77;;;2.57;;
1454;SDS011;721;48.168;12.818;2022-07-04T19:57:58;2.77;;;2.53;;
1454;SDS011;721;48.168;12.818;2022-07-04T20:00:25;2.60;;;2.33;;
1454;SDS011;721;48.168;12.818;2022-07-04T20:02:52;2.67;;;2.47;;
1454;SDS011;721;48.168;12.818;2022-07-04T20:05:19;2.90;;;2.70;;
1454;SDS011;721;48.168;12.818;2022-07-04T20:07:47;2.30;;;2.20;;
1454;SDS011;721;48.168;12.818;2022-07-04T20:10:16;2.33;;;2.20;;
1454;SDS011;721;48.168;12.818;2022-07-04T20:12:44;3.63;;;2.83;;
1454;SDS011;721;48.168;12.818;2022-07-04T20:15:11;3.10;;;2.43;;
1454;SDS011;721;48.168;12.818;2022-07-04T20:17:39;3.33;;;2.70;;
1454;SDS011;721;48.168;12.818;2022-07-04T20:20:09;2.30;;;2.10;;
1454;SDS011;721;48.168;12.818;2022-07-04T20:22:37;2.80;;;2.37;;
1454;SDS011;721;48.168;12.818;2022-07-04T20:25:04;3.70;;;3.17;;
1454;SDS011;721;48.168;12.818;2022-07-04T20:27:32;2.97;;;2.77;;
1454;SDS011;721;48.168;12.818;2022-07-04T20:30:02;3.13;;;2.93;;
1454;SDS011;721;48.168;12.818;2022-07-04T20:32:30;3.20;;;2.90;;
1454;SDS011;721;48.168;12.818;2022-07-04T20:35:00;3.67;;;3.17;;
1454;SDS011;721;48.168;12.818;2022-07-04T20:37:29;2.93;;;2.73;;
1454;SDS011;721;48.168;12.818;2022-07-04T20:39:56;3.27;;;2.83;;
1454;SDS011;721;48.168;12.818;2022-07-04T20:42:24;3.50;;;3.20;;
1454;SDS011;721;48.168;12.818;2022-07-04T20:44:51;3.37;;;3.17;;
1454;SDS011;721;48.168;12.818;2022-07-04T20:47:20;3.10;;;2.90;;
1454;SDS011;721;48.168;12.818;2022-07-04T20:49:46;2.90;;;2.70;;
1454;SDS011;721;48.168;12.818;2022-07-04T20:52:15;3.50;;;3.20;;
1454;SDS011;721;48.168;12.818;2022-07-04T20:54:41;3.50;;;3.20;;
1454;SDS011;721;48.168;12.818;2022-07-04T20:57:09;3.67;;;3.20;;
1454;SDS011;721;48.168;12.818;2022-07-04T20:59:36;3.40;;;3.10;;
1454;SDS011;721;48.168;12.818;2022-07-04T21:02:04;6.60;;;4.20;;
1454;SDS011;721;48.168;12.818;2022-07-04T21:04:37;4.13;;;3.70;;
1454;SDS011;721;48.168;12.818;2022-07-04T21:07:04;4.00;;;3.60;;
1454;SDS011;721;48.168;12.818;2022-07-04T21:09:31;3.90;;;3.60;;
1454;SDS011;721;48.168;12.818;2022-07-04T21:11:59;5.03;;;3.67;;
1454;SDS011;721;48.168;12.818;2022-07-04T21:14:26;3.00;;;2.70;;
1454;SDS011;721;48.168;12.818;2022-07-04T21:16:56;2.53;;;2.40;;
1454;SDS011;721;48.168;12.818;2022-07-04T21:19:23;3.50;;;3.20;;
1454;SDS011;721;48.168;12.818;2022-07-04T21:21:51;2.07;;;1.87;;
1454;SDS011;721;48.168;12.818;2022-07-04T21:24:20;3.30;;;2.80;;
1454;SDS011;721;48.168;12.818;2022-07-04T21:26:47;3.10;;;2.90;;
1454;SDS011;721;48.168;12.818;2022-07-04T21:29:13;3.37;;;2.27;;
1454;SDS011;721;48.168;12.818;2022-07-04T21:31:40;4.60;;;2.90;;
1454;SDS011;721;48.168;12.818;2022-07-04T21:34:07;2.90;;;2.53;;
1454;SDS011;721;48.168;12.818;2022-07-04T21:36:34;3.47;;;2.83;;
1454;SDS011;721;48.168;12.818;2022-07-04T21:39:02;2.57;;;2.37;;
1454;SDS011;721;48.168;12.818;2022-07-04T21:41:29;3.50;;;2.90;;
1454;SDS011;721;48.168;12.818;2022-07-04T21:43:56;4.33;;;4.00;;
1454;SDS011;721;48.168;12.818;2022-07-04T21:46:23;4.57;;;3.80;;
1454;SDS011;721;48.168;12.818;2022-07-04T21:48:50;3.23;;;3.00;;
1454;SDS011;721;48.168;12.818;2022-07-04T21:51:17;3.33;;;3.03;;
1454;SDS011;721;48.168;12.818;2022-07-04T21:53:44;3.87;;;3.60;;
1454;SDS011;721;48.168;12.818;2022-07-04T21:56:12;3.70;;;3.40;;
1454;SDS011;721;48.168;12.818;2022-07-04T21:58:42;5.37;;;3.40;;
1454;SDS011;721;48.168;12.818;2022-07-04T22:01:09;3.83;;;3.53;;
1454;SDS011;721;48.168;12.818;2022-07-04T22:03:36;3.87;;;3.57;;
1454;SDS011;721;48.168;12.818;2022-07-04T22:06:03;4.53;;;3.77;;
1454;SDS011;721;48.168;12.818;2022-07-04T22:08:30;5.70;;;3.70;;
1454;SDS011;721;48.168;12.818;2022-07-04T22:10:57;4.93;;;4.53;;
1454;SDS011;721;48.168;12.818;2022-07-04T22:13:25;5.20;;;4.67;;
1454;SDS011;721;48.168;12.818;2022-07-04T22:15:51;6.17;;;5.63;;
1454;SDS011;721;48.168;12.818;2022-07-04T22:18:18;5.00;;;4.50;;
1454;SDS011;721;48.168;12.818;2022-07-04T22:20:45;4.20;;;3.90;;
1454;SDS011;721;48.168;12.818;2022-07-04T22:23:12;4.70;;;4.30;;
1454;SDS011;721;48.168;12.818;2022-07-04T22:25:39;4.00;;;3.70;;
1454;SDS011;721;48.168;12.818;2022-07-04T22:28:05;4.03;;;3.73;;
1454;SDS011;721;48.168;12.818;2022-07-04T22:30:33;4.50;;;4.10;;
1454;SDS011;721;48.168;12.818;2022-07-04T22:33:00;6.80;;;4.70;;
1454;SDS011;721;48.168;12.818;2022-07-04T22:35:27;4.53;;;4.13;;
1454;SDS011;721;48.168;12.818;2022-07-04T22:37:54;6.23;;;4.13;;
1454;SDS011;721;48.168;12.818;2022-07-04T22:40:21;4.50;;;4.20;;
1454;SDS011;721;48.168;12.818;2022-07-04T22:42:48;4.47;;;4.07;;
1454;SDS011;721;48.168;12.818;2022-07-04T22:45:14;4.00;;;3.70;;
1454;SDS011;721;48.168;12.818;2022-07-04T22:47:43;4.53;;;4.13;;
1454;SDS011;721;48.168;12.818;2022-07-04T22:50:09;4.37;;;3.97;;
1454;SDS011;721;48.168;12.818;2022-07-04T22:52:36;3.80;;;3.60;;
1454;SDS011;721;48.168;12.818;2022-07-04T22:55:03;3.10;;;2.90;;
1454;SDS011;721;48.168;12.818;2022-07-04T22:57:32;3.20;;;2.90;;
1454;SDS011;721;48.168;12.818;2022-07-04T23:00:00;2.73;;;2.63;;
1454;SDS011;721;48.168;12.818;2022-07-04T23:02:29;3.57;;;3.27;;
1454;SDS011;721;48.168;12.818;2022-07-04T23:04:57;3.00;;;2.80;;
1454;SDS011;721;48.168;12.818;2022-07-04T23:07:24;3.63;;;3.33;;
1454;SDS011;721;48.168;12.818;2022-07-04T23:09:51;4.53;;;3.27;;
1454;SDS011;721;48.168;12.818;2022-07-04T23:12:18;3.70;;;3.00;;
1454;SDS011;721;48.168;12.818;2022-07-04T23:14:45;3.43;;;3.13;;
1454;SDS011;721;48.168;12.818;2022-07-04T23:17:12;2.77;;;2.57;;
1454;SDS011;721;48.168;12.818;2022-07-04T23:19:39;2.87;;;2.63;;
1454;SDS011;721;48.168;12.818;2022-07-04T23:22:07;4.23;;;3.10;;
1454;SDS011;721;48.168;12.818;2022-07-04T23:24:34;2.70;;;2.50;;
1454;SDS011;721;48.168;12.818;2022-07-04T23:27:01;6.47;;;2.57;;
1454;SDS011;721;48.168;12.818;2022-07-04T23:29:29;2.83;;;2.63;;
1454;SDS011;721;48.168;12.818;2022-07-04T23:31:56;3.10;;;2.90;;
1454;SDS011;721;48.168;12.818;2022-07-04T23:34:23;2.27;;;2.00;;
1454;SDS011;721;48.168;12.818;2022-07-04T23:36:49;2.47;;;2.27;;
1454;SDS011;721;48.168;12.818;2022-07-04T23:39:18;4.13;;;3.83;;
1454;SDS011;721;48.168;12.818;2022-07-04T23:41:45;3.27;;;2.57;;
1454;SDS011;721;48.168;12.818;2022-07-04T23:44:11;3.63;;;3.40;;
1454;SDS011;721;48.168;12.818;2022-07-04T23:46:41;3.03;;;2.20;;
1454;SDS011;721;48.168;12.818;2022-07-04T23:49:08;3.00;;;2.80;;
1454;SDS011;721;48.168;12.818;2022-07-04T23:51:35;3.57;;;3.30;;
1454;SDS011;721;48.168;12.818;2022-07-04T23:54:01;3.47;;;2.50;;
1454;SDS011;721;48.168;12.818;2022-07-04T23:56:30;2.47;;;2.27;;
1454;SDS011;721;48.168;12.818;2022-07-04T23:58:57;2.13;;;2.03;;
